createdAt,value
2018-03-02T00:02:02.127Z,13.52
2018-03-02T00:04:28.792Z,11.50
2018-03-02T00:06:55.471Z,15.00
2018-03-02T00:09:22.131Z,16.05
2018-03-02T00:11:48.776Z,13.15
2018-03-02T00:14:15.428Z,15.77
2018-03-02T00:16:42.106Z,13.00
2018-03-02T00:19:08.776Z,12.63
2018-03-02T00:21:35.512Z,17.95
2018-03-02T00:24:02.203Z,14.55
2018-03-02T00:26:28.908Z,16.17
2018-03-02T00:28:55.556Z,15.15
2018-03-02T00:31:22.216Z,12.35
2018-03-02T00:33:48.885Z,16.52
2018-03-02T00:36:15.519Z,16.15
2018-03-02T00:38:42.181Z,16.30
2018-03-02T00:41:08.824Z,15.27
2018-03-02T00:43:35.497Z,12.88
2018-03-02T00:46:02.148Z,15.07
2018-03-02T00:48:28.798Z,15.15
2018-03-02T00:50:55.458Z,16.55
2018-03-02T00:53:22.104Z,17.52
2018-03-02T00:55:48.789Z,17.92
2018-03-02T00:58:15.423Z,15.75
2018-03-02T01:00:42.097Z,18.30
2018-03-02T01:03:08.748Z,19.87
2018-03-02T01:05:35.413Z,15.98
2018-03-02T01:08:02.052Z,18.02
2018-03-02T01:10:28.708Z,14.13
2018-03-02T01:12:55.356Z,15.82
2018-03-02T01:15:22.019Z,15.30
2018-03-02T01:17:48.665Z,10.05
2018-03-02T01:20:15.332Z,16.45
2018-03-02T01:22:42.887Z,17.67
2018-03-02T01:25:09.560Z,16.50
2018-03-02T01:27:36.211Z,17.80
2018-03-02T01:30:02.879Z,14.60
2018-03-02T01:32:29.520Z,20.33
2018-03-02T01:34:56.211Z,13.95
2018-03-02T01:37:22.864Z,17.48
2018-03-02T01:39:49.536Z,12.43
2018-03-02T01:42:16.179Z,17.48
2018-03-02T01:44:42.839Z,14.85
2018-03-02T01:47:09.495Z,15.73
2018-03-02T01:49:36.148Z,17.17
2018-03-02T01:52:02.797Z,13.23
2018-03-02T01:54:29.447Z,16.92
2018-03-02T01:56:56.104Z,16.85
2018-03-02T01:59:22.739Z,16.00
2018-03-02T02:01:49.402Z,17.33
2018-03-02T02:04:16.059Z,16.52
2018-03-02T02:06:42.724Z,16.85
2018-03-02T02:09:09.394Z,17.67
2018-03-02T02:11:36.068Z,18.77
2018-03-02T02:14:02.703Z,15.82
2018-03-02T02:16:29.385Z,16.37
2018-03-02T02:18:56.051Z,17.35
2018-03-02T02:21:22.715Z,14.07
2018-03-02T02:23:52.242Z,11.48
2018-03-02T02:26:18.919Z,16.77
2018-03-02T02:28:45.597Z,15.38
2018-03-02T02:31:12.271Z,16.05
2018-03-02T02:33:38.920Z,18.67
2018-03-02T02:36:05.582Z,15.57
2018-03-02T02:38:32.222Z,18.05
2018-03-02T02:40:58.908Z,16.17
2018-03-02T02:43:25.552Z,17.45
2018-03-02T02:45:52.205Z,18.73
2018-03-02T02:48:18.868Z,18.12
2018-03-02T02:50:45.543Z,14.23
2018-03-02T02:53:12.189Z,20.30
2018-03-02T02:55:38.855Z,12.80
2018-03-02T02:58:05.528Z,16.30
2018-03-02T03:00:32.190Z,20.12
2018-03-02T03:02:58.850Z,12.48
2018-03-02T03:05:25.505Z,20.27
2018-03-02T03:07:52.177Z,19.87
2018-03-02T03:10:18.839Z,15.63
2018-03-02T03:12:45.496Z,17.87
2018-03-02T03:15:12.131Z,16.27
2018-03-02T03:17:38.791Z,16.40
2018-03-02T03:20:05.452Z,17.65
2018-03-02T03:22:32.115Z,19.12
2018-03-02T03:24:58.782Z,14.95
2018-03-02T03:27:25.442Z,15.65
2018-03-02T03:29:52.092Z,20.27
2018-03-02T03:32:18.763Z,20.88
2018-03-02T03:34:45.416Z,16.87
2018-03-02T03:37:12.074Z,18.92
2018-03-02T03:39:38.716Z,20.65
2018-03-02T03:42:05.379Z,20.75
2018-03-02T03:44:32.036Z,18.70
2018-03-02T03:46:58.687Z,19.15
2018-03-02T03:49:25.351Z,20.48
2018-03-02T03:51:51.992Z,20.55
2018-03-02T03:54:18.640Z,17.23
2018-03-02T03:56:45.286Z,16.50
2018-03-02T03:59:11.932Z,17.52
2018-03-02T04:01:38.687Z,19.20
2018-03-02T04:04:05.340Z,17.25
2018-03-02T04:06:32.011Z,18.87
2018-03-02T04:08:58.654Z,16.55
2018-03-02T04:11:25.325Z,20.10
2018-03-02T04:13:52.108Z,17.55
2018-03-02T04:16:18.796Z,14.45
2018-03-02T04:18:45.436Z,18.48
2018-03-02T04:21:12.080Z,19.67
2018-03-02T04:23:38.753Z,19.20
2018-03-02T04:26:05.704Z,19.70
2018-03-02T04:28:32.370Z,16.48
2018-03-02T04:30:59.447Z,16.83
2018-03-02T04:33:26.119Z,20.08
2018-03-02T04:35:53.371Z,19.98
2018-03-02T04:38:20.041Z,18.98
2018-03-02T04:40:46.677Z,18.55
2018-03-02T04:43:13.325Z,17.67
2018-03-02T04:45:40.024Z,21.50
2018-03-02T04:48:06.631Z,13.85
2018-03-02T04:50:33.935Z,16.02
2018-03-02T04:53:01.235Z,20.08
2018-03-02T04:55:27.891Z,15.85
2018-03-02T04:57:54.531Z,12.77
2018-03-02T05:00:21.199Z,19.58
2018-03-02T05:02:47.868Z,19.30
2018-03-02T05:05:15.733Z,21.35
2018-03-02T05:07:42.424Z,20.30
2018-03-02T05:10:09.080Z,18.45
2018-03-02T05:12:36.333Z,14.65
2018-03-02T05:15:03.028Z,19.35
2018-03-02T05:17:29.674Z,21.40
2018-03-02T05:19:56.321Z,19.27
2018-03-02T05:22:22.981Z,18.55
2018-03-02T05:24:49.617Z,19.48
2018-03-02T05:27:16.285Z,19.90
2018-03-02T05:29:42.921Z,16.80
2018-03-02T05:32:09.572Z,20.33
2018-03-02T05:34:36.235Z,12.77
2018-03-02T05:37:02.892Z,18.92
2018-03-02T05:39:29.795Z,19.67
2018-03-02T05:41:56.448Z,18.98
2018-03-02T05:44:23.153Z,18.60
2018-03-02T05:46:49.866Z,20.60
2018-03-02T05:49:16.577Z,19.15
2018-03-02T05:51:43.326Z,22.10
2018-03-02T05:54:09.992Z,21.12
2018-03-02T05:56:36.660Z,26.90
2018-03-02T05:59:03.307Z,18.48
2018-03-02T06:01:29.969Z,18.70
2018-03-02T06:03:56.611Z,18.92
2018-03-02T06:06:23.299Z,23.67
2018-03-02T06:08:49.947Z,19.87
2018-03-02T06:11:16.635Z,19.87
2018-03-02T06:13:43.284Z,20.00
2018-03-02T06:16:09.969Z,17.27
2018-03-02T06:18:36.635Z,14.40
2018-03-02T06:21:03.323Z,21.67
2018-03-02T06:23:29.985Z,14.30
2018-03-02T06:25:56.649Z,21.50
2018-03-02T06:28:23.307Z,20.75
2018-03-02T06:30:49.965Z,21.35
2018-03-02T06:33:16.602Z,20.40
2018-03-02T06:35:43.298Z,15.35
2018-03-02T06:38:09.940Z,20.10
2018-03-02T06:40:36.668Z,20.15
2018-03-02T06:43:03.397Z,19.42
2018-03-02T06:45:30.053Z,22.17
2018-03-02T06:47:56.692Z,21.23
2018-03-02T06:50:23.343Z,23.73
2018-03-02T06:52:49.985Z,23.48
2018-03-02T06:55:16.664Z,18.30
2018-03-02T06:57:43.362Z,16.55
2018-03-02T07:00:09.998Z,21.55
2018-03-02T07:02:36.632Z,20.90
2018-03-02T07:05:03.267Z,35.45
2018-03-02T07:07:30.129Z,20.12
2018-03-02T07:09:56.776Z,25.95
2018-03-02T07:12:23.430Z,24.10
2018-03-02T07:14:50.092Z,24.23
2018-03-02T07:17:16.806Z,21.58
2018-03-02T07:19:43.422Z,19.77
2018-03-02T07:22:10.113Z,22.27
2018-03-02T07:24:36.754Z,28.25
2018-03-02T07:27:03.421Z,23.60
2018-03-02T07:29:30.080Z,22.60
2018-03-02T07:31:56.740Z,23.70
2018-03-02T07:34:24.471Z,19.80
2018-03-02T07:36:51.153Z,18.05
2018-03-02T07:39:17.815Z,23.55
2018-03-02T07:41:44.492Z,27.92
2018-03-02T07:44:11.143Z,22.67
2018-03-02T07:46:37.806Z,21.12
2018-03-02T07:49:04.446Z,25.88
2018-03-02T07:51:31.122Z,24.98
2018-03-02T07:53:57.770Z,20.15
2018-03-02T07:56:24.464Z,27.62
2018-03-02T07:58:51.118Z,23.33
2018-03-02T08:01:17.771Z,22.37
2018-03-02T08:03:44.404Z,24.50
2018-03-02T08:06:11.040Z,26.50
2018-03-02T08:08:37.695Z,31.67
2018-03-02T08:11:04.332Z,51.13
2018-03-02T08:13:30.968Z,32.53
2018-03-02T08:15:57.616Z,31.48
2018-03-02T08:18:24.270Z,30.40
2018-03-02T08:20:50.912Z,32.90
2018-03-02T08:23:17.582Z,28.45
2018-03-02T08:25:44.270Z,36.40
2018-03-02T08:28:10.929Z,35.03
2018-03-02T08:30:37.604Z,34.83
2018-03-02T08:33:04.277Z,36.05
2018-03-02T08:35:30.921Z,36.55
2018-03-02T08:37:57.585Z,36.35
2018-03-02T08:40:24.236Z,38.35
2018-03-02T08:42:51.015Z,37.25
2018-03-02T08:45:17.651Z,36.58
2018-03-02T08:47:44.310Z,34.75
2018-03-02T08:50:10.958Z,34.75
2018-03-02T08:52:37.607Z,31.83
2018-03-02T08:55:04.246Z,37.85
2018-03-02T08:57:30.902Z,36.60
2018-03-02T08:59:57.545Z,39.63
2018-03-02T09:02:24.196Z,38.80
2018-03-02T09:04:50.859Z,37.22
2018-03-02T09:07:17.511Z,38.25
2018-03-02T09:09:44.156Z,40.20
2018-03-02T09:12:10.816Z,40.55
2018-03-02T09:14:37.460Z,37.80
2018-03-02T09:17:04.108Z,36.63
2018-03-02T09:19:30.780Z,39.58
2018-03-02T09:21:57.420Z,38.55
2018-03-02T09:24:24.080Z,38.55
2018-03-02T09:26:50.722Z,38.85
2018-03-02T09:29:17.388Z,39.78
2018-03-02T09:31:44.046Z,37.42
2018-03-02T09:34:10.701Z,38.53
2018-03-02T09:36:37.351Z,36.65
2018-03-02T09:39:04.017Z,37.20
2018-03-02T09:41:30.655Z,39.90
2018-03-02T09:43:57.327Z,40.28
2018-03-02T09:46:23.970Z,38.50
2018-03-02T09:48:50.603Z,38.70
2018-03-02T09:51:17.264Z,39.17
2018-03-02T09:53:43.948Z,37.83
2018-03-02T09:56:10.610Z,39.40
2018-03-02T09:58:37.297Z,35.42
2018-03-02T10:01:03.948Z,38.88
2018-03-02T10:03:30.601Z,36.72
2018-03-02T10:05:57.239Z,40.83
2018-03-02T10:08:23.889Z,39.10
2018-03-02T10:10:50.560Z,38.63
2018-03-02T10:13:17.208Z,39.38
2018-03-02T10:15:43.876Z,40.10
2018-03-02T10:18:10.520Z,37.97
2018-03-02T10:20:37.172Z,40.10
2018-03-02T10:23:03.812Z,39.30
2018-03-02T10:25:30.476Z,38.30
2018-03-02T10:27:57.144Z,38.65
2018-03-02T10:30:23.825Z,34.97
2018-03-02T10:32:50.499Z,36.92
2018-03-02T10:35:17.167Z,38.95
2018-03-02T10:37:43.835Z,37.75
2018-03-02T10:40:10.481Z,35.63
2018-03-02T10:42:37.179Z,34.88
2018-03-02T10:45:03.832Z,34.50
2018-03-02T10:47:30.500Z,34.08
2018-03-02T10:49:57.139Z,36.45
2018-03-02T10:52:23.825Z,35.85
2018-03-02T10:54:50.480Z,34.22
2018-03-02T10:57:17.129Z,36.15
2018-03-02T10:59:43.809Z,33.05
2018-03-02T11:02:26.292Z,36.72
2018-03-02T11:04:58.749Z,36.92
2018-03-02T11:07:25.409Z,39.00
2018-03-02T11:09:52.047Z,38.65
2018-03-02T11:12:18.725Z,36.30
2018-03-02T11:14:45.360Z,36.80
2018-03-02T11:17:12.028Z,37.92
2018-03-02T11:19:38.934Z,37.65
2018-03-02T11:22:05.608Z,32.40
2018-03-02T11:24:32.256Z,33.08
2018-03-02T11:26:58.930Z,35.83
2018-03-02T11:29:25.572Z,33.55
2018-03-02T11:31:52.261Z,32.38
2018-03-02T11:34:18.904Z,33.97
2018-03-02T11:36:45.539Z,34.70
2018-03-02T11:39:12.181Z,36.10
2018-03-02T11:41:38.822Z,37.75
2018-03-02T11:44:05.469Z,35.97
2018-03-02T11:46:32.109Z,34.90
2018-03-02T11:48:58.762Z,33.17
2018-03-02T11:51:25.403Z,33.53
2018-03-02T11:53:52.123Z,35.85
2018-03-02T11:56:18.778Z,29.12
2018-03-02T11:58:45.444Z,32.10
2018-03-02T12:01:12.158Z,29.27
2018-03-02T12:03:38.815Z,31.85
2018-03-02T12:06:05.456Z,31.20
2018-03-02T12:08:32.146Z,30.10
2018-03-02T12:10:58.792Z,32.97
2018-03-02T12:13:25.461Z,30.95
2018-03-02T12:15:52.116Z,30.58
2018-03-02T12:18:18.809Z,28.12
2018-03-02T12:20:45.466Z,32.60
2018-03-02T12:23:12.147Z,27.65
2018-03-02T12:25:38.788Z,33.00
2018-03-02T12:28:05.461Z,26.12
2018-03-02T12:30:32.108Z,26.98
2018-03-02T12:32:58.800Z,27.83
2018-03-02T12:35:25.462Z,25.10
2018-03-02T12:37:52.108Z,29.02
2018-03-02T12:40:18.751Z,28.30
2018-03-02T12:42:45.411Z,24.98
2018-03-02T12:45:12.057Z,26.60
2018-03-02T12:47:38.712Z,23.77
2018-03-02T12:50:05.359Z,25.50
2018-03-02T12:52:32.014Z,26.02
2018-03-02T12:54:58.659Z,27.75
2018-03-02T12:57:25.312Z,24.73
2018-03-02T12:59:52.956Z,27.23
2018-03-02T13:02:19.640Z,28.08
2018-03-02T13:04:46.302Z,28.08
2018-03-02T13:07:12.969Z,26.90
2018-03-02T13:09:39.628Z,27.87
2018-03-02T13:12:06.285Z,33.63
2018-03-02T13:14:32.950Z,26.35
2018-03-02T13:16:59.636Z,31.83
2018-03-02T13:19:26.295Z,30.80
2018-03-02T13:21:52.952Z,31.98
2018-03-02T13:24:19.675Z,30.05
2018-03-02T13:26:52.255Z,30.55
2018-03-02T13:29:18.957Z,30.88
2018-03-02T13:31:45.628Z,31.67
2018-03-02T13:34:18.182Z,26.55
2018-03-02T13:36:44.848Z,30.67
2018-03-02T13:39:11.498Z,31.62
2018-03-02T13:41:44.160Z,30.70
2018-03-02T13:44:10.825Z,32.33
2018-03-02T13:46:37.463Z,32.30
2018-03-02T13:49:09.968Z,31.62
2018-03-02T13:51:36.685Z,29.27
2018-03-02T13:54:03.338Z,30.08
2018-03-02T13:56:35.780Z,31.45
2018-03-02T13:59:02.434Z,28.80
2018-03-02T14:01:29.120Z,31.17
2018-03-02T14:04:01.617Z,31.30
2018-03-02T14:06:28.321Z,32.60
2018-03-02T14:08:54.963Z,30.23
2018-03-02T14:11:21.624Z,29.75
2018-03-02T14:13:48.291Z,31.75
2018-03-02T14:16:14.968Z,27.60
2018-03-02T14:18:41.628Z,32.13
2018-03-02T14:21:08.309Z,33.08
2018-03-02T14:23:34.979Z,32.45
2018-03-02T14:26:01.643Z,26.60
2018-03-02T14:28:28.296Z,31.70
2018-03-02T14:30:55.044Z,32.50
2018-03-02T14:33:21.688Z,29.98
2018-03-02T14:35:48.354Z,31.05
2018-03-02T14:38:15.008Z,31.02
2018-03-02T14:40:41.676Z,32.30
2018-03-02T14:43:08.343Z,31.30
2018-03-02T14:45:34.992Z,31.65
2018-03-02T14:48:01.682Z,26.98
2018-03-02T14:50:28.337Z,30.33
2018-03-02T14:52:55.480Z,32.85
2018-03-02T14:55:22.165Z,33.10
2018-03-02T14:57:48.835Z,32.05
2018-03-02T15:00:15.497Z,34.30
2018-03-02T15:02:42.183Z,30.00
2018-03-02T15:05:08.861Z,29.63
2018-03-02T15:07:35.592Z,32.72
2018-03-02T15:10:02.248Z,28.90
2018-03-02T15:12:28.936Z,30.17
2018-03-02T15:14:55.577Z,28.85
2018-03-02T15:17:22.239Z,30.98
2018-03-02T15:19:48.925Z,30.75
2018-03-02T15:22:15.586Z,30.05
2018-03-02T15:24:42.227Z,29.02
2018-03-02T15:27:08.888Z,29.95
2018-03-02T15:29:35.535Z,31.67
2018-03-02T15:32:02.181Z,29.65
2018-03-02T15:34:28.844Z,29.25
2018-03-02T15:36:55.498Z,30.02
2018-03-02T15:39:22.158Z,27.27
2018-03-02T15:41:48.821Z,31.75
2018-03-02T15:44:15.581Z,27.08
2018-03-02T15:46:42.230Z,32.13
2018-03-02T15:49:08.914Z,31.83
2018-03-02T15:51:35.559Z,29.80
2018-03-02T15:54:02.221Z,33.30
2018-03-02T15:56:28.873Z,29.27
2018-03-02T15:58:55.541Z,30.55
2018-03-02T16:01:22.185Z,30.90
2018-03-02T16:03:48.872Z,31.77
2018-03-02T16:06:15.555Z,32.03
2018-03-02T16:08:42.230Z,30.70
2018-03-02T16:11:08.927Z,32.30
2018-03-02T16:13:35.609Z,27.85
2018-03-02T16:16:02.262Z,32.67
2018-03-02T16:18:28.921Z,29.25
2018-03-02T16:20:55.578Z,29.65
2018-03-02T16:23:22.213Z,28.42
2018-03-02T16:25:49.205Z,29.92
2018-03-02T16:28:16.168Z,30.98
2018-03-02T16:30:43.188Z,30.52
2018-03-02T16:33:09.895Z,28.73
2018-03-02T16:35:36.906Z,28.62
2018-03-02T16:38:03.632Z,27.45
2018-03-02T16:40:30.316Z,29.35
2018-03-02T16:42:57.322Z,28.05
2018-03-02T16:45:24.378Z,25.90
2018-03-02T16:47:51.173Z,26.40
2018-03-02T16:50:18.148Z,27.90
2018-03-02T16:52:44.808Z,29.80
2018-03-02T16:55:11.590Z,30.30
2018-03-02T16:57:38.259Z,28.75
2018-03-02T17:00:04.925Z,27.02
2018-03-02T17:02:31.582Z,25.58
2018-03-02T17:04:58.231Z,28.15
2018-03-02T17:07:24.938Z,28.92
2018-03-02T17:09:51.574Z,27.73
2018-03-02T17:12:18.243Z,52.47
2018-03-02T17:14:49.738Z,28.77
2018-03-02T17:17:16.388Z,28.17
2018-03-02T17:19:43.432Z,67.37
2018-03-02T17:22:10.098Z,33.38
2018-03-02T17:24:36.855Z,24.02
2018-03-02T17:27:03.501Z,26.92
2018-03-02T17:29:33.230Z,28.10
2018-03-02T17:31:59.905Z,25.75
2018-03-02T17:34:26.554Z,27.75
2018-03-02T17:36:53.250Z,27.27
2018-03-02T17:39:19.896Z,25.33
2018-03-02T17:41:46.549Z,22.20
2018-03-02T17:44:13.188Z,26.30
2018-03-02T17:46:39.828Z,25.10
2018-03-02T17:49:06.502Z,25.90
2018-03-02T17:51:33.144Z,21.50
2018-03-02T17:53:59.780Z,22.77
2018-03-02T17:56:26.420Z,19.60
2018-03-02T17:58:53.056Z,24.90
2018-03-02T18:01:19.839Z,23.02
2018-03-02T18:03:46.497Z,24.33
2018-03-02T18:06:13.160Z,25.70
2018-03-02T18:08:39.824Z,23.08
2018-03-02T18:11:06.536Z,18.37
2018-03-02T18:13:33.151Z,20.37
2018-03-02T18:15:59.850Z,23.90
2018-03-02T18:18:26.497Z,23.87
2018-03-02T18:20:53.152Z,21.87
2018-03-02T18:23:19.887Z,23.42
2018-03-02T18:25:46.528Z,23.02
2018-03-02T18:28:13.168Z,21.20
2018-03-02T18:30:39.980Z,20.73
2018-03-02T18:33:06.714Z,21.40
2018-03-02T18:35:33.324Z,20.55
2018-03-02T18:37:59.975Z,22.27
2018-03-02T18:40:26.621Z,22.17
2018-03-02T18:42:53.265Z,21.60
2018-03-02T18:45:19.931Z,22.70
2018-03-02T18:47:46.582Z,20.62
2018-03-02T18:50:13.226Z,17.40
2018-03-02T18:52:39.865Z,21.33
2018-03-02T18:55:06.565Z,15.57
2018-03-02T18:57:33.236Z,17.12
2018-03-02T18:59:59.881Z,19.83
2018-03-02T19:02:26.524Z,18.40
2018-03-02T19:04:53.163Z,19.85
2018-03-02T19:07:19.847Z,16.45
2018-03-02T19:09:46.521Z,15.80
2018-03-02T19:12:13.275Z,17.87
2018-03-02T19:14:40.084Z,17.15
2018-03-02T19:17:06.873Z,14.25
2018-03-02T19:19:33.567Z,20.95
2018-03-02T19:22:00.209Z,18.90
2018-03-02T19:24:26.860Z,18.12
2018-03-02T19:26:53.519Z,19.55
2018-03-02T19:29:20.179Z,19.30
2018-03-02T19:31:46.819Z,21.00
2018-03-02T19:34:13.480Z,17.20
2018-03-02T19:36:40.152Z,14.85
2018-03-02T19:39:06.811Z,19.85
2018-03-02T19:41:33.459Z,18.08
2018-03-02T19:44:00.136Z,19.77
2018-03-02T19:46:26.799Z,17.25
2018-03-02T19:48:53.540Z,17.20
2018-03-02T19:51:20.184Z,17.80
2018-03-02T19:53:46.864Z,19.23
2018-03-02T19:56:13.512Z,19.55
2018-03-02T19:58:40.219Z,20.95
2018-03-02T20:01:06.892Z,20.85
2018-03-02T20:03:33.576Z,19.02
2018-03-02T20:06:00.238Z,18.58
2018-03-02T20:08:26.876Z,20.35
2018-03-02T20:10:53.541Z,19.12
2018-03-02T20:13:20.298Z,19.67
2018-03-02T20:15:47.185Z,14.70
2018-03-02T20:18:13.887Z,20.05
2018-03-02T20:20:40.546Z,18.77
2018-03-02T20:23:07.243Z,19.40
2018-03-02T20:25:33.880Z,20.48
2018-03-02T20:28:00.589Z,20.17
2018-03-02T20:30:27.244Z,18.87
2018-03-02T20:32:54.017Z,17.27
2018-03-02T20:35:20.680Z,19.52
2018-03-02T20:37:47.348Z,21.95
2018-03-02T20:40:13.998Z,20.67
2018-03-02T20:42:40.639Z,19.15
2018-03-02T20:45:07.291Z,19.20
2018-03-02T20:47:33.967Z,20.23
2018-03-02T20:50:00.617Z,20.05
2018-03-02T20:52:27.263Z,18.55
2018-03-02T20:54:53.928Z,19.20
2018-03-02T20:57:20.772Z,20.12
2018-03-02T20:59:47.503Z,17.67
2018-03-02T21:02:14.151Z,19.85
2018-03-02T21:04:40.836Z,15.63
2018-03-02T21:07:07.504Z,20.40
2018-03-02T21:09:34.190Z,33.20
2018-03-02T21:12:00.884Z,21.95
2018-03-02T21:14:27.607Z,19.00
2018-03-02T21:16:54.337Z,27.23
2018-03-02T21:19:21.004Z,22.05
2018-03-02T21:21:48.404Z,21.48
2018-03-02T21:24:15.053Z,20.45
2018-03-02T21:26:41.854Z,18.98
2018-03-02T21:29:08.565Z,22.10
2018-03-02T21:31:35.485Z,21.67
2018-03-02T21:34:02.150Z,20.85
2018-03-02T21:36:29.120Z,21.62
2018-03-02T21:38:56.025Z,18.67
2018-03-02T21:41:22.749Z,21.87
2018-03-02T21:43:49.569Z,25.73
2018-03-02T21:46:16.277Z,21.15
2018-03-02T21:48:43.181Z,26.50
2018-03-02T21:51:09.860Z,16.25
2018-03-02T21:53:36.509Z,19.98
2018-03-02T21:56:03.167Z,18.05
2018-03-02T21:58:29.879Z,17.10
2018-03-02T22:00:56.522Z,23.90
2018-03-02T22:03:23.174Z,18.90
2018-03-02T22:05:49.823Z,17.67
2018-03-02T22:08:16.485Z,13.52
2018-03-02T22:10:43.159Z,19.87
2018-03-02T22:13:09.820Z,17.50
2018-03-02T22:15:41.344Z,18.40
2018-03-02T22:18:07.993Z,21.92
2018-03-02T22:20:34.636Z,19.92
2018-03-02T22:23:01.308Z,16.80
2018-03-02T22:25:27.964Z,19.65
2018-03-02T22:27:54.632Z,19.05
2018-03-02T22:30:21.304Z,20.60
2018-03-02T22:32:47.979Z,18.92
2018-03-02T22:35:14.617Z,20.95
2018-03-02T22:37:41.277Z,19.50
2018-03-02T22:40:07.983Z,18.90
2018-03-02T22:42:34.626Z,17.23
2018-03-02T22:45:01.272Z,18.58
2018-03-02T22:47:27.924Z,16.27
2018-03-02T22:49:54.579Z,15.55
2018-03-02T22:52:21.256Z,17.77
2018-03-02T22:54:47.909Z,18.98
2018-03-02T22:57:14.553Z,19.70
2018-03-02T22:59:41.224Z,19.55
2018-03-02T23:02:07.876Z,18.08
2018-03-02T23:04:34.525Z,21.02
2018-03-02T23:07:01.174Z,19.00
2018-03-02T23:09:27.817Z,18.35
2018-03-02T23:11:54.472Z,21.42
2018-03-02T23:14:21.138Z,21.95
2018-03-02T23:16:47.787Z,16.00
2018-03-02T23:19:14.453Z,18.80
2018-03-02T23:21:41.108Z,18.48
2018-03-02T23:24:07.755Z,15.60
2018-03-02T23:26:34.437Z,15.18
2018-03-02T23:29:01.129Z,19.60
2018-03-02T23:31:27.771Z,17.33
2018-03-02T23:33:54.411Z,16.10
2018-03-02T23:36:21.063Z,16.00
2018-03-02T23:38:47.716Z,20.10
2018-03-02T23:41:14.378Z,19.30
2018-03-02T23:43:41.028Z,20.00
2018-03-02T23:46:07.689Z,21.40
2018-03-02T23:48:34.329Z,20.55
2018-03-02T23:51:00.977Z,16.50
2018-03-02T23:53:27.629Z,18.65
2018-03-02T23:55:54.284Z,21.95
2018-03-02T23:58:20.928Z,18.75
